Beaufort MCAS - Merritt Field
KNBC : now visible

Airfield :











YOU CAN JOIN US ON...

 
LOGIN :

Register | Disclaimer

   EN    FR    IT 

 









Legend :    VFR   Marginal VFR   IFR   Intensive IFR   Very Intensive IFR
Visi :
Ceiling :
>= 8 km
>= 3000ft
5 to 8 km
1000 to 3000 ft
1500m to 5 km
500 to 1000 ft
800 to 1500m
200 to 500 ft
< 800m
< 200 ft
Symbols :   Thunderstorms  Fog  Heavy snow  Heavy precipitations  Wind > 20 kt






- Airport Elevation : 37 ft


KNBC - Beaufort MCAS - Merritt Field

CURRENT METAR :
  • 190056Z AUTO 19005KT 10SM CLR 16/13 A3017 RMK AO2 SLP218 T01610128 $

EXPIRED METARs :
  • 182356Z AUTO 18007KT 10SM CLR 16/13 A3019 RMK AO2 SLP225 T01610128 10194 20161 56023 $
  • 182256Z AUTO 20004KT 10SM CLR 17/13 A3022 RMK AO2 SLP233 T01720128 $

TAF TAF KNBC
Valid from the 18 at 21:00 until the 19 at 21:00 UTC


1821/1921 15007KT 9999 SKC QNH3012INS
BECMG 1906/1908 21013KT 6000 -RA BR BKN010 OVC015 QNH3005INS
TEMPO 1918/1921 28014G25KT T10/1906Z T17/1915Z



MET'MAP, your aeronautical weather chart ! - Copyright ORBIFLY December 2007 - Disclaimer

ORBIFLY MET'MAP TEAM :

Programming & Development : Alexandra Zaïnal
Concept & original design : Baudouin d'Aumeries
Assistance for programming : Marc-Olivier Méhu
Technical & hardware support : Manuel Goepfert

Contact : metmap@orbifly.com




SOURCES & CREDITS :

   NOAA       Earth
Advisory